Terminal Aerodrome Forecast
Issued by NWS

Home | Current Version | Previous Version | Text Only | Print | Product List | Glossary On
Versions: 1 2 3 4 5 6 7 8 9 10 11 12 13
000
FTUS46 KSGX 070544 RRA
TAFTRM
TAF
KTRM 070544Z 0706/0806 33018G27KT P6SM SKC
     FM070900 33014G22KT P6SM SKC
     FM072000 32020G30KT P6SM SKC=

USA.gov is the U.S. government's official web portal to all federal, state and local government web resources and services.